createdAt,value
2018-08-10T00:03:31.657Z,92.87
2018-08-10T00:08:43.470Z,94.87
2018-08-10T00:13:59.195Z,94.54
2018-08-10T00:19:29.513Z,96.23
2018-08-10T00:24:43.816Z,96.01
2018-08-10T00:29:56.013Z,95.67
2018-08-10T00:35:10.311Z,95.03
2018-08-10T00:40:20.600Z,94.30
2018-08-10T00:45:35.065Z,94.87
2018-08-10T00:51:07.288Z,95.10
2018-08-10T00:56:17.033Z,95.54
2018-08-10T01:01:33.173Z,94.36
2018-08-10T01:06:48.657Z,92.28
2018-08-10T01:12:01.232Z,92.38
2018-08-10T01:17:14.683Z,92.16
2018-08-10T01:22:23.622Z,91.56
2018-08-10T01:27:39.736Z,92.17
2018-08-10T01:32:51.077Z,90.91
2018-08-10T01:38:03.698Z,90.68
2018-08-10T01:43:14.436Z,90.35
2018-08-10T01:48:24.226Z,89.52
2018-08-10T01:53:37.488Z,89.65
2018-08-10T01:58:54.942Z,89.17
2018-08-10T02:04:10.297Z,88.93
2018-08-10T02:09:27.848Z,89.98
2018-08-10T02:14:40.745Z,88.84
2018-08-10T02:19:54.620Z,88.60
2018-08-10T02:25:08.441Z,87.25
2018-08-10T02:30:20.026Z,86.17
2018-08-10T02:35:35.257Z,84.89
2018-08-10T02:40:52.704Z,85.28
2018-08-10T02:46:08.404Z,84.10
2018-08-10T02:51:21.482Z,83.28
2018-08-10T02:56:35.162Z,83.63
2018-08-10T03:01:50.107Z,83.08
2018-08-10T03:07:04.989Z,83.20
2018-08-10T03:12:14.714Z,83.20
2018-08-10T03:17:23.686Z,82.36
2018-08-10T03:22:32.679Z,83.01
2018-08-10T03:27:52.080Z,82.60
2018-08-10T03:33:06.361Z,81.10
2018-08-10T03:38:20.557Z,79.76
2018-08-10T03:43:36.325Z,79.76
2018-08-10T03:48:49.159Z,78.77
2018-08-10T03:54:05.495Z,78.63
2018-08-10T03:59:44.732Z,77.68
2018-08-10T04:05:04.268Z,78.00
2018-08-10T04:10:13.753Z,76.75
2018-08-10T04:15:22.991Z,74.90
2018-08-10T04:20:33.161Z,73.85
2018-08-10T04:25:42.679Z,72.96
2018-08-10T04:30:51.938Z,73.49
2018-08-10T04:36:01.958Z,70.13
2018-08-10T04:41:10.674Z,68.88
2018-08-10T04:46:19.865Z,67.62
2018-08-10T04:51:28.919Z,67.64
2018-08-10T04:56:39.148Z,67.33
2018-08-10T05:01:47.975Z,67.91
2018-08-10T05:06:57.382Z,65.90
2018-08-10T05:12:06.416Z,64.02
2018-08-10T05:17:15.561Z,64.80
2018-08-10T05:22:25.400Z,64.29
2018-08-10T05:27:35.365Z,63.35
2018-08-10T05:32:45.015Z,63.63
2018-08-10T05:37:54.052Z,60.58
2018-08-10T05:43:03.144Z,60.35
2018-08-10T05:48:11.753Z,61.18
2018-08-10T05:53:20.919Z,58.74
2018-08-10T05:58:30.029Z,58.54
2018-08-10T06:03:39.262Z,56.75
2018-08-10T06:08:48.277Z,57.34
2018-08-10T06:13:57.123Z,56.59
2018-08-10T06:19:06.053Z,57.20
2018-08-10T06:24:15.070Z,57.48
2018-08-10T06:29:24.337Z,57.91
2018-08-10T06:34:32.961Z,56.96
2018-08-10T06:39:41.867Z,58.31
2018-08-10T06:44:50.948Z,57.58
2018-08-10T06:50:00.103Z,58.18
2018-08-10T06:55:08.839Z,57.30
2018-08-10T07:00:17.687Z,57.85
2018-08-10T07:05:26.970Z,58.34
2018-08-10T07:10:35.829Z,57.00
2018-08-10T07:15:44.786Z,55.62
2018-08-10T07:20:54.873Z,54.73
2018-08-10T07:26:04.064Z,54.96
2018-08-10T07:31:13.185Z,56.78
2018-08-10T07:36:24.332Z,56.19
2018-08-10T07:41:33.307Z,56.38
2018-08-10T07:46:42.542Z,54.97
2018-08-10T07:51:51.623Z,52.30
2018-08-10T07:57:00.591Z,51.79
2018-08-10T08:02:09.689Z,52.48
2018-08-10T08:07:18.929Z,54.62
2018-08-10T08:12:27.975Z,52.79
2018-08-10T08:17:36.996Z,51.89
2018-08-10T08:22:46.147Z,51.06
2018-08-10T08:27:55.220Z,50.39
2018-08-10T08:33:04.299Z,50.06
2018-08-10T08:39:24.608Z,45.93
2018-08-10T08:44:49.515Z,44.82
2018-08-10T08:49:58.974Z,48.42
2018-08-10T08:55:27.869Z,47.68
2018-08-10T09:00:37.507Z,45.43
2018-08-10T09:05:46.851Z,40.39
2018-08-10T09:10:56.611Z,41.89
2018-08-10T09:16:06.243Z,46.06
2018-08-10T09:21:15.253Z,45.23
2018-08-10T09:26:24.273Z,43.31
2018-08-10T09:31:33.300Z,41.88
2018-08-10T09:36:42.149Z,42.04
2018-08-10T09:41:51.271Z,42.19
2018-08-10T09:47:00.382Z,41.53
2018-08-10T09:52:09.474Z,42.61
2018-08-10T09:57:18.918Z,42.04
2018-08-10T10:02:28.151Z,40.97
2018-08-10T10:07:37.146Z,41.88
2018-08-10T10:12:46.223Z,39.49
2018-08-10T10:17:55.299Z,35.81
2018-08-10T10:23:04.411Z,36.88
2018-08-10T10:28:13.329Z,35.83
2018-08-10T10:33:22.419Z,35.92
2018-08-10T10:38:31.117Z,33.27
2018-08-10T10:43:40.254Z,33.48
2018-08-10T10:48:49.796Z,35.97
2018-08-10T10:53:59.218Z,35.91
2018-08-10T10:59:09.003Z,33.42
2018-08-10T11:04:18.885Z,32.59
2018-08-10T11:09:27.553Z,31.30
2018-08-10T11:14:36.442Z,35.54
2018-08-10T11:19:46.240Z,33.58
2018-08-10T11:24:54.996Z,37.05
2018-08-10T11:30:05.292Z,33.41
2018-08-10T11:35:14.844Z,34.74
2018-08-10T11:40:24.197Z,34.75
2018-08-10T11:45:33.232Z,34.46
2018-08-10T11:50:42.753Z,35.23
2018-08-10T11:55:51.639Z,33.93
2018-08-10T12:01:01.197Z,36.00
2018-08-10T12:06:11.323Z,38.45
2018-08-10T12:11:20.390Z,35.28
2018-08-10T12:16:29.147Z,33.25
2018-08-10T12:21:38.466Z,35.43
2018-08-10T12:26:47.397Z,33.41
2018-08-10T12:31:58.195Z,35.08
2018-08-10T12:37:07.742Z,34.93
2018-08-10T12:42:17.180Z,33.84
2018-08-10T12:47:26.814Z,31.98
2018-08-10T12:52:36.366Z,32.36
2018-08-10T12:57:45.383Z,36.11
2018-08-10T13:02:54.546Z,33.54
2018-08-10T13:08:03.960Z,33.67
2018-08-10T13:13:13.290Z,32.47
2018-08-10T13:18:23.659Z,30.65
2018-08-10T13:23:33.464Z,33.27
2018-08-10T13:28:42.151Z,31.86
2018-08-10T13:33:53.175Z,31.13
2018-08-10T13:39:02.283Z,29.45
2018-08-10T13:44:17.827Z,29.19
2018-08-10T13:49:27.007Z,27.31
2018-08-10T13:54:36.456Z,28.24
2018-08-10T13:59:46.379Z,29.84
2018-08-10T14:04:55.291Z,30.19
2018-08-10T14:10:04.839Z,30.34
2018-08-10T14:15:13.768Z,31.86
2018-08-10T14:20:23.408Z,30.45
2018-08-10T14:25:32.508Z,30.39
2018-08-10T14:30:41.776Z,30.34
2018-08-10T14:35:50.832Z,32.08
2018-08-10T14:40:59.850Z,30.22
2018-08-10T14:46:09.099Z,29.76
2018-08-10T14:51:18.153Z,30.81
2018-08-10T14:56:27.071Z,30.96
2018-08-10T15:01:36.009Z,30.04
2018-08-10T15:06:44.986Z,31.09
2018-08-10T15:11:54.544Z,30.71
2018-08-10T15:17:03.941Z,30.23
2018-08-10T15:22:28.755Z,30.04
2018-08-10T15:27:54.859Z,29.59
2018-08-10T15:33:22.593Z,29.96
2018-08-10T15:38:32.728Z,29.89
2018-08-10T15:43:42.241Z,29.34
2018-08-10T15:48:52.475Z,28.68
2018-08-10T15:54:01.788Z,29.21
2018-08-10T15:59:10.811Z,30.32
2018-08-10T16:04:20.194Z,29.78
2018-08-10T16:09:29.192Z,30.54
2018-08-10T16:14:38.330Z,32.19
2018-08-10T16:19:47.448Z,32.93
2018-08-10T16:24:56.848Z,33.30
2018-08-10T16:30:07.202Z,30.25
2018-08-10T16:35:16.144Z,28.70
2018-08-10T16:40:25.411Z,31.32
2018-08-10T16:45:34.884Z,29.62
2018-08-10T16:50:44.518Z,29.12
2018-08-10T16:55:53.404Z,29.30
2018-08-10T17:01:02.438Z,30.18
2018-08-10T17:06:11.125Z,30.04
2018-08-10T17:11:20.254Z,31.02
2018-08-10T17:16:29.011Z,30.12
2018-08-10T17:21:37.865Z,31.93
2018-08-10T17:26:46.829Z,31.48
2018-08-10T17:31:56.978Z,31.84
2018-08-10T17:37:06.049Z,32.93
2018-08-10T17:42:15.115Z,34.79
2018-08-10T17:47:24.594Z,33.87
2018-08-10T17:52:33.478Z,34.25
2018-08-10T17:57:42.666Z,35.37
2018-08-10T18:02:51.767Z,35.59
2018-08-10T18:08:00.732Z,36.21
2018-08-10T18:13:10.144Z,34.94
2018-08-10T18:18:18.961Z,35.76
2018-08-10T18:23:28.268Z,37.56
2018-08-10T18:28:37.972Z,38.81
2018-08-10T18:33:46.744Z,39.30
2018-08-10T18:38:55.888Z,39.76
2018-08-10T18:44:05.115Z,42.66
2018-08-10T18:49:14.172Z,44.30
2018-08-10T18:54:23.444Z,47.73
2018-08-10T18:59:32.617Z,49.66
2018-08-10T19:04:41.772Z,50.47
2018-08-10T19:09:51.438Z,51.92
2018-08-10T19:15:01.218Z,54.16
2018-08-10T19:20:11.509Z,55.71
2018-08-10T19:25:21.527Z,55.76
2018-08-10T19:30:31.468Z,57.42
2018-08-10T19:35:41.628Z,58.11
2018-08-10T19:40:51.816Z,58.11
2018-08-10T19:46:01.021Z,59.16
2018-08-10T19:51:10.542Z,60.31
2018-08-10T19:56:23.608Z,59.51
2018-08-10T20:01:32.281Z,61.10
2018-08-10T20:06:41.947Z,62.33
2018-08-10T20:11:51.720Z,63.08
2018-08-10T20:17:07.801Z,63.08
2018-08-10T20:22:17.035Z,64.75
2018-08-10T20:27:26.879Z,64.67
2018-08-10T20:32:36.254Z,65.23
2018-08-10T20:37:45.947Z,65.62
2018-08-10T20:42:54.887Z,67.53
2018-08-10T20:48:04.504Z,69.18
2018-08-10T20:53:13.505Z,69.18
2018-08-10T20:58:23.194Z,69.89
2018-08-10T21:03:31.972Z,69.87
2018-08-10T21:08:41.116Z,71.27
2018-08-10T21:13:51.218Z,71.20
2018-08-10T21:19:00.526Z,70.33
2018-08-10T21:24:09.866Z,70.46
2018-08-10T21:29:20.023Z,70.14
2018-08-10T21:34:29.474Z,71.92
2018-08-10T21:39:38.884Z,71.94
2018-08-10T21:44:48.359Z,72.53
2018-08-10T21:49:58.099Z,72.89
2018-08-10T21:55:07.615Z,73.05
2018-08-10T22:00:28.437Z,73.25
2018-08-10T22:05:37.446Z,73.00
2018-08-10T22:10:46.767Z,73.16
2018-08-10T22:15:57.516Z,73.64
2018-08-10T22:21:06.510Z,73.28
2018-08-10T22:26:15.807Z,72.98
2018-08-10T22:31:24.712Z,73.52
2018-08-10T22:36:34.240Z,73.08
2018-08-10T22:41:43.614Z,73.16
2018-08-10T22:46:53.141Z,73.40
2018-08-10T22:52:02.239Z,71.37
2018-08-10T22:57:11.596Z,72.20
2018-08-10T23:02:20.600Z,71.77
2018-08-10T23:07:29.260Z,71.47
2018-08-10T23:12:38.436Z,71.02
2018-08-10T23:17:47.590Z,70.56
2018-08-10T23:22:56.546Z,71.67
2018-08-10T23:28:05.704Z,72.80
2018-08-10T23:33:15.099Z,71.44
2018-08-10T23:38:26.573Z,72.24
2018-08-10T23:43:35.551Z,71.71
2018-08-10T23:48:44.765Z,73.04
2018-08-10T23:53:54.077Z,71.88
2018-08-10T23:59:03.177Z,73.13
